Partly Cloudy Current Weather (METAR) For Antalya Airport

All times on the weather descriptions are local

Observed at 19:50 - (26 mins ago)

Partly Cloudy

28°C

Partly Cloudy
Clouds: Scattered Clouds at 3,000ft
Wind: Variable at 03 knots
Visibility: Greater than 10km
QNH: 1011
Dew Point: 20°C
Runway in Use: Unable to determine, wind is variable

Sunrise Today: 05:40
Sunset Today: 20:21

Forecast Weather (TAF) For Antalya Airport

Issued at 03:00 - (28 days ago)


Runway in Use: Unable to determine, wind is clam

Forecast valid until 03:00 on Friday

METAR/TAF RAW METAR / TAF

LTAI 031650Z VRB03KT 9999 SCT030 28/20 Q1011 NOSIG

Weather Widget

Put weather from any of our airports on your website with our weather widget.

Find Another Search

Airport Search


Please Wait Please Wait - Loading
Close
Close

Login

Username:

Password:

Remember Me:

Remember me on this computer

Forgotten your password? Get a reset password sent to your registered e-mail address

Close

User Private Message

Subject:

Message: